createdAt,value
2019-02-15T00:03:27.205Z,7.09
2019-02-15T00:08:31.942Z,7.25
2019-02-15T00:13:37.200Z,7.25
2019-02-15T00:18:52.693Z,7.25
2019-02-15T00:23:57.436Z,6.99
2019-02-15T00:29:02.182Z,6.84
2019-02-15T00:34:06.927Z,6.65
2019-02-15T00:39:14.750Z,6.42
2019-02-15T00:44:19.585Z,6.66
2019-02-15T00:49:26.066Z,6.00
2019-02-15T00:54:35.529Z,6.40
2019-02-15T00:59:53.891Z,6.61
2019-02-15T01:05:15.009Z,6.71
2019-02-15T01:10:27.536Z,6.39
2019-02-15T01:15:32.276Z,6.57
2019-02-15T01:20:38.467Z,6.17
2019-02-15T01:25:45.140Z,6.17
2019-02-15T01:30:51.526Z,6.01
2019-02-15T01:36:00.671Z,6.31
2019-02-15T01:41:09.922Z,6.33
2019-02-15T01:46:17.838Z,5.91
2019-02-15T01:51:24.113Z,6.06
2019-02-15T01:56:28.883Z,5.66
2019-02-15T02:01:33.919Z,5.94
2019-02-15T02:06:38.647Z,5.83
2019-02-15T02:11:43.392Z,5.72
2019-02-15T02:16:49.272Z,5.23
2019-02-15T02:21:53.999Z,5.67
2019-02-15T02:26:58.743Z,5.18
2019-02-15T02:32:03.485Z,4.81
2019-02-15T02:37:08.234Z,5.22
2019-02-15T02:42:13.074Z,5.40
2019-02-15T02:47:19.508Z,5.43
2019-02-15T02:52:24.201Z,5.74
2019-02-15T02:57:29.049Z,5.45
2019-02-15T03:02:33.684Z,5.43
2019-02-15T03:07:38.535Z,5.46
2019-02-15T03:12:43.275Z,5.60
2019-02-15T03:17:47.973Z,4.96
2019-02-15T03:22:52.763Z,5.56
2019-02-15T03:27:57.331Z,5.66
2019-02-15T03:33:02.911Z,5.21
2019-02-15T03:38:09.245Z,5.73
2019-02-15T03:43:13.980Z,5.80
2019-02-15T03:48:20.361Z,5.72
2019-02-15T03:53:24.957Z,5.38
2019-02-15T03:58:30.148Z,5.63
2019-02-15T04:03:34.898Z,5.88
2019-02-15T04:08:39.661Z,5.52
2019-02-15T04:13:44.386Z,5.38
2019-02-15T04:18:50.663Z,5.62
2019-02-15T04:23:55.407Z,5.53
2019-02-15T04:29:03.216Z,5.63
2019-02-15T04:34:07.974Z,5.79
2019-02-15T04:39:15.121Z,5.48
2019-02-15T04:44:21.219Z,5.76
2019-02-15T04:49:27.515Z,5.43
2019-02-15T04:54:35.079Z,5.77
2019-02-15T04:59:39.632Z,5.68
2019-02-15T05:04:44.415Z,5.69
2019-02-15T05:09:49.049Z,5.67
2019-02-15T05:14:57.374Z,5.69
2019-02-15T05:20:03.982Z,5.38
2019-02-15T05:25:09.026Z,5.64
2019-02-15T05:30:13.654Z,5.73
2019-02-15T05:35:19.410Z,5.00
2019-02-15T05:40:24.049Z,5.69
2019-02-15T05:45:34.136Z,5.66
2019-02-15T05:50:38.762Z,5.57
2019-02-15T05:55:43.628Z,5.95
2019-02-15T06:00:48.350Z,5.82
2019-02-15T06:05:53.319Z,5.87
2019-02-15T06:11:06.637Z,6.00
2019-02-15T06:16:04.317Z,5.77
2019-02-15T06:21:09.101Z,5.98
2019-02-15T06:26:13.813Z,4.80
2019-02-15T06:31:20.186Z,5.81
2019-02-15T06:36:26.676Z,5.95
2019-02-15T06:41:31.512Z,6.20
2019-02-15T06:46:36.362Z,6.22
2019-02-15T06:51:43.152Z,6.02
2019-02-15T06:56:48.080Z,6.31
2019-02-15T07:02:00.113Z,5.99
2019-02-15T07:07:06.491Z,6.17
2019-02-15T07:12:11.439Z,6.26
2019-02-15T07:17:16.283Z,6.19
2019-02-15T07:22:23.004Z,6.49
2019-02-15T07:27:27.712Z,6.45
2019-02-15T07:32:34.000Z,6.42
2019-02-15T07:37:42.446Z,6.40
2019-02-15T07:42:47.164Z,4.38
2019-02-15T07:47:52.943Z,5.56
2019-02-15T07:52:59.208Z,5.05
2019-02-15T07:58:03.959Z,4.37
2019-02-15T08:03:08.695Z,4.24
2019-02-15T08:08:13.379Z,4.66
2019-02-15T08:13:18.384Z,4.43
2019-02-15T08:18:23.139Z,3.86
2019-02-15T08:23:27.874Z,4.54
2019-02-15T08:28:33.733Z,4.14
2019-02-15T08:33:39.100Z,4.47
2019-02-15T08:38:43.950Z,4.31
2019-02-15T08:43:48.791Z,5.36
2019-02-15T08:48:53.635Z,5.34
2019-02-15T08:53:59.909Z,5.01
2019-02-15T08:59:06.017Z,5.21
2019-02-15T09:04:12.731Z,4.82
2019-02-15T09:09:17.518Z,4.51
2019-02-15T09:14:22.261Z,4.74
2019-02-15T09:19:27.016Z,5.13
2019-02-15T09:24:31.851Z,6.02
2019-02-15T09:29:36.587Z,6.01
2019-02-15T09:34:42.840Z,6.38
2019-02-15T09:39:47.750Z,6.24
2019-02-15T09:44:52.357Z,6.48
2019-02-15T09:49:57.098Z,5.83
2019-02-15T09:55:01.860Z,6.29
2019-02-15T10:00:10.688Z,6.17
2019-02-15T10:05:15.523Z,4.68
2019-02-15T10:10:20.164Z,5.45
2019-02-15T10:15:25.931Z,4.74
2019-02-15T10:20:31.995Z,5.36
2019-02-15T10:25:37.262Z,4.55
2019-02-15T10:30:42.104Z,4.34
2019-02-15T10:35:46.953Z,4.58
2019-02-15T10:40:53.546Z,5.29
2019-02-15T10:45:58.594Z,5.48
2019-02-15T10:51:03.334Z,5.46
2019-02-15T10:56:09.816Z,5.37
2019-02-15T11:01:14.558Z,5.81
2019-02-15T11:06:19.302Z,6.45
2019-02-15T11:11:24.243Z,4.86
2019-02-15T11:16:28.985Z,5.48
2019-02-15T11:21:33.832Z,5.64
2019-02-15T11:26:40.321Z,5.99
2019-02-15T11:31:45.064Z,5.39
2019-02-15T11:36:49.799Z,5.75
2019-02-15T11:41:54.564Z,5.65
2019-02-15T11:46:59.287Z,4.72
2019-02-15T11:52:05.672Z,5.17
2019-02-15T11:57:10.327Z,5.80
2019-02-15T12:02:15.052Z,5.89
2019-02-15T12:07:22.208Z,6.22
2019-02-15T12:12:28.462Z,6.06
2019-02-15T12:17:33.388Z,6.38
2019-02-15T12:22:39.862Z,6.77
2019-02-15T12:27:44.510Z,5.53
2019-02-15T12:32:49.346Z,5.29
2019-02-15T12:37:55.421Z,5.82
2019-02-15T12:43:00.288Z,5.11
2019-02-15T12:48:05.107Z,4.68
2019-02-15T12:53:10.276Z,4.41
2019-02-15T12:58:17.496Z,4.77
2019-02-15T13:03:22.164Z,4.96
2019-02-15T13:08:27.048Z,4.66
2019-02-15T13:13:32.940Z,5.67
2019-02-15T13:18:37.969Z,6.08
2019-02-15T13:23:42.820Z,6.38
2019-02-15T13:28:50.731Z,6.15
2019-02-15T13:33:57.070Z,5.95
2019-02-15T13:39:02.083Z,6.03
2019-02-15T13:44:08.344Z,5.95
2019-02-15T13:49:14.508Z,5.84
2019-02-15T13:54:19.259Z,6.43
2019-02-15T13:59:23.999Z,6.47
2019-02-15T14:04:28.847Z,5.96
2019-02-15T14:09:33.692Z,6.03
2019-02-15T14:14:38.454Z,6.55
2019-02-15T14:19:43.176Z,6.51
2019-02-15T14:24:48.015Z,6.60
2019-02-15T14:29:52.760Z,6.33
2019-02-15T14:34:58.136Z,6.29
2019-02-15T14:40:02.960Z,6.50
2019-02-15T14:45:10.707Z,5.85
2019-02-15T14:50:16.030Z,5.82
2019-02-15T14:55:21.179Z,6.23
2019-02-15T15:00:27.880Z,6.48
2019-02-15T15:05:34.367Z,6.29
2019-02-15T15:10:40.233Z,6.48
2019-02-15T15:15:45.166Z,6.51
2019-02-15T15:20:49.915Z,6.20
2019-02-15T15:25:56.613Z,6.27
2019-02-15T15:31:02.445Z,6.40
2019-02-15T15:36:08.121Z,6.22
2019-02-15T15:41:14.748Z,6.08
2019-02-15T15:46:19.574Z,6.06
2019-02-15T15:51:24.742Z,5.08
2019-02-15T15:56:30.251Z,4.74
2019-02-15T16:01:36.157Z,4.35
2019-02-15T16:06:41.000Z,3.95
2019-02-15T16:11:45.980Z,4.53
2019-02-15T16:16:50.795Z,3.74
2019-02-15T16:21:57.273Z,4.44
2019-02-15T16:27:02.339Z,4.20
2019-02-15T16:32:09.016Z,4.49
2019-02-15T16:37:13.665Z,3.90
2019-02-15T16:42:20.363Z,4.43
2019-02-15T16:47:25.396Z,4.57
2019-02-15T16:52:30.746Z,4.16
2019-02-15T16:57:35.793Z,4.06
2019-02-15T17:02:41.456Z,4.76
2019-02-15T17:07:46.215Z,5.62
2019-02-15T17:12:54.112Z,5.07
2019-02-15T17:17:59.367Z,5.51
2019-02-15T17:23:04.018Z,5.31
2019-02-15T17:28:10.978Z,4.62
2019-02-15T17:33:15.878Z,5.22
2019-02-15T17:38:20.702Z,5.29
2019-02-15T17:43:27.393Z,5.11
2019-02-15T17:48:32.038Z,5.38
2019-02-15T17:53:37.002Z,5.18
2019-02-15T17:58:41.824Z,4.85
2019-02-15T18:03:46.568Z,4.77
2019-02-15T18:08:51.512Z,4.78
2019-02-15T18:13:56.354Z,4.93
2019-02-15T18:19:09.782Z,4.94
2019-02-15T18:24:08.528Z,5.63
2019-02-15T18:29:14.883Z,5.18
2019-02-15T18:34:19.745Z,5.67
2019-02-15T18:39:25.496Z,5.12
2019-02-15T18:44:31.576Z,5.04
2019-02-15T18:49:36.518Z,5.76
2019-02-15T18:54:41.275Z,6.33
2019-02-15T18:59:46.104Z,5.67
2019-02-15T19:04:53.374Z,6.16
2019-02-15T19:10:00.041Z,6.21
2019-02-15T19:15:06.791Z,6.31
2019-02-15T19:20:14.299Z,6.45
2019-02-15T19:25:20.763Z,6.39
2019-02-15T19:30:33.309Z,6.13
2019-02-15T19:35:40.708Z,6.03
2019-02-15T19:40:45.674Z,6.27
2019-02-15T19:45:51.904Z,6.29
2019-02-15T19:50:56.675Z,6.30
2019-02-15T19:56:01.279Z,6.32
2019-02-15T20:01:06.576Z,6.29
2019-02-15T20:06:12.318Z,6.20
2019-02-15T20:11:18.926Z,6.15
2019-02-15T20:16:23.794Z,6.14
2019-02-15T20:21:28.530Z,6.13
2019-02-15T20:26:33.494Z,6.19
2019-02-15T20:31:38.612Z,5.48
2019-02-15T20:36:45.094Z,5.59
2019-02-15T20:41:49.836Z,5.84
2019-02-15T20:46:54.925Z,5.83
2019-02-15T20:51:59.602Z,6.03
2019-02-15T20:57:04.377Z,5.01
2019-02-15T21:02:11.473Z,5.75
2019-02-15T21:07:17.974Z,5.96
2019-02-15T21:12:24.916Z,6.08
2019-02-15T21:17:29.602Z,6.07
2019-02-15T21:22:34.334Z,5.96
2019-02-15T21:27:39.070Z,6.05
2019-02-15T21:32:44.226Z,6.09
2019-02-15T21:37:51.424Z,5.83
2019-02-15T21:42:55.995Z,5.38
2019-02-15T21:48:02.239Z,5.66
2019-02-15T21:53:08.011Z,6.02
2019-02-15T21:58:15.617Z,6.13
2019-02-15T22:03:21.902Z,5.50
2019-02-15T22:08:27.472Z,5.06
2019-02-15T22:13:32.131Z,5.61
2019-02-15T22:18:36.980Z,5.35
2019-02-15T22:23:42.924Z,5.67
2019-02-15T22:28:49.198Z,5.49
2019-02-15T22:33:53.938Z,5.32
2019-02-15T22:38:58.572Z,5.54
2019-02-15T22:44:04.311Z,5.82
2019-02-15T22:49:09.089Z,5.94
2019-02-15T22:54:13.829Z,6.03
2019-02-15T22:59:18.877Z,6.01
2019-02-15T23:04:23.629Z,6.09
2019-02-15T23:09:28.363Z,6.02
2019-02-15T23:14:33.108Z,6.09
2019-02-15T23:19:37.849Z,6.14
2019-02-15T23:24:42.592Z,5.80
2019-02-15T23:29:47.340Z,6.22
2019-02-15T23:34:52.493Z,6.19
2019-02-15T23:39:57.131Z,6.12
2019-02-15T23:45:01.769Z,6.22
2019-02-15T23:50:08.448Z,6.14
2019-02-15T23:55:13.613Z,6.03
